createdAt,value
2023-01-31T00:01:12.013Z,22.30
2023-01-31T00:03:44.370Z,20.15
2023-01-31T00:06:12.975Z,12.68
2023-01-31T00:08:40.470Z,16.77
2023-01-31T00:11:07.824Z,23.98
2023-01-31T00:13:35.190Z,16.73
2023-01-31T00:16:03.056Z,14.50
2023-01-31T00:18:30.559Z,19.40
2023-01-31T00:20:58.054Z,21.63
2023-01-31T00:23:28.010Z,25.73
2023-01-31T00:25:55.478Z,11.55
2023-01-31T00:28:22.916Z,13.23
2023-01-31T00:30:50.980Z,13.60
2023-01-31T00:33:21.699Z,15.18
2023-01-31T00:35:48.900Z,19.25
2023-01-31T00:38:16.159Z,17.27
2023-01-31T00:40:43.568Z,16.90
2023-01-31T00:43:13.712Z,9.40
2023-01-31T00:45:40.969Z,20.75
2023-01-31T00:48:08.264Z,20.27
2023-01-31T00:50:38.493Z,18.88
2023-01-31T00:53:06.459Z,27.73
2023-01-31T00:55:35.951Z,18.42
2023-01-31T00:58:03.239Z,14.93
2023-01-31T01:00:30.822Z,21.75
2023-01-31T01:02:58.154Z,18.35
2023-01-31T01:05:26.535Z,12.93
2023-01-31T01:07:53.858Z,15.02
2023-01-31T01:10:22.213Z,15.98
2023-01-31T01:12:49.497Z,20.23
2023-01-31T01:15:19.750Z,11.70
2023-01-31T01:17:47.185Z,7.07
2023-01-31T01:20:14.703Z,15.30
2023-01-31T01:22:44.449Z,18.00
2023-01-31T01:25:18.000Z,19.95
2023-01-31T01:27:45.545Z,11.20
2023-01-31T01:30:13.021Z,13.77
2023-01-31T01:32:42.399Z,14.52
2023-01-31T01:35:10.235Z,13.45
2023-01-31T01:37:37.538Z,14.60
2023-01-31T01:40:05.248Z,21.08
2023-01-31T01:42:35.472Z,19.70
2023-01-31T01:45:04.185Z,14.93
2023-01-31T01:47:39.398Z,21.45
2023-01-31T01:50:13.261Z,48.40
2023-01-31T01:52:42.999Z,15.20
2023-01-31T01:55:18.910Z,13.25
2023-01-31T01:57:47.525Z,20.98
2023-01-31T02:00:22.645Z,13.20
2023-01-31T02:02:51.205Z,24.58
2023-01-31T02:05:24.576Z,17.13
2023-01-31T02:07:51.902Z,21.02
2023-01-31T02:10:39.441Z,10.70
2023-01-31T02:13:07.310Z,19.48
2023-01-31T02:15:34.980Z,19.05
2023-01-31T02:18:02.321Z,12.95
2023-01-31T02:20:29.568Z,19.67
2023-01-31T02:23:10.700Z,18.45
2023-01-31T02:25:41.083Z,16.20
2023-01-31T02:28:25.710Z,19.33
2023-01-31T02:30:53.019Z,17.15
2023-01-31T02:33:44.601Z,16.30
2023-01-31T02:36:31.264Z,21.77
2023-01-31T02:39:17.487Z,19.77
2023-01-31T02:42:07.981Z,22.80
2023-01-31T02:45:01.932Z,12.75
2023-01-31T02:47:32.410Z,8.73
2023-01-31T02:50:38.378Z,18.80
2023-01-31T02:53:15.941Z,11.52
2023-01-31T02:56:17.906Z,20.77
2023-01-31T02:58:51.226Z,14.00
2023-01-31T03:03:47.060Z,12.75
2023-01-31T03:06:33.781Z,11.90
2023-01-31T03:09:07.231Z,14.57
2023-01-31T03:11:37.837Z,15.23
2023-01-31T03:14:23.931Z,13.95
2023-01-31T03:17:15.063Z,17.35
2023-01-31T03:19:50.765Z,15.50
2023-01-31T03:22:24.278Z,15.32
2023-01-31T03:24:52.474Z,14.13
2023-01-31T03:27:21.084Z,18.00
2023-01-31T03:29:48.574Z,13.38
2023-01-31T03:32:18.775Z,14.95
2023-01-31T03:34:46.052Z,16.83
2023-01-31T03:37:17.848Z,14.07
2023-01-31T03:39:48.211Z,15.50
2023-01-31T03:42:23.026Z,15.80
2023-01-31T03:45:03.710Z,21.10
2023-01-31T03:47:36.013Z,18.42
2023-01-31T03:50:08.942Z,17.27
2023-01-31T03:52:39.719Z,13.23
2023-01-31T03:55:13.547Z,11.60
2023-01-31T03:57:41.416Z,21.83
2023-01-31T04:00:10.344Z,13.70
2023-01-31T04:02:38.412Z,16.90
2023-01-31T04:05:08.542Z,22.88
2023-01-31T04:07:36.456Z,14.77
2023-01-31T04:10:06.221Z,20.90
2023-01-31T04:12:37.292Z,16.60
2023-01-31T04:15:08.133Z,20.23
2023-01-31T04:17:35.405Z,14.55
2023-01-31T04:20:04.795Z,16.27
2023-01-31T04:22:32.181Z,19.30
2023-01-31T04:24:59.496Z,17.83
2023-01-31T04:27:26.997Z,20.63
2023-01-31T04:29:54.189Z,18.65
2023-01-31T04:32:21.416Z,15.15
2023-01-31T04:34:48.674Z,18.83
2023-01-31T04:37:15.907Z,14.63
2023-01-31T04:39:49.740Z,18.73
2023-01-31T04:42:17.055Z,21.15
2023-01-31T04:44:44.409Z,16.95
2023-01-31T04:47:11.678Z,19.52
2023-01-31T04:49:38.924Z,15.65
2023-01-31T04:52:06.283Z,21.48
2023-01-31T04:54:33.637Z,20.35
2023-01-31T04:57:00.942Z,11.25
2023-01-31T04:59:28.342Z,14.43
2023-01-31T05:01:55.579Z,17.20
2023-01-31T05:04:23.790Z,16.02
2023-01-31T05:06:53.838Z,16.33
2023-01-31T05:09:23.333Z,15.52
2023-01-31T05:11:51.136Z,17.48
2023-01-31T05:14:23.606Z,23.25
2023-01-31T05:16:54.019Z,20.35
2023-01-31T05:19:21.359Z,11.13
2023-01-31T05:22:00.731Z,16.65
2023-01-31T05:24:32.782Z,14.60
2023-01-31T05:27:03.516Z,16.02
2023-01-31T05:29:32.493Z,18.75
2023-01-31T05:32:04.262Z,18.23
2023-01-31T05:34:35.875Z,18.73
2023-01-31T05:37:03.785Z,14.35
2023-01-31T05:39:31.433Z,21.95
2023-01-31T05:42:13.756Z,26.60
2023-01-31T05:44:41.220Z,11.57
2023-01-31T05:47:08.491Z,13.90
2023-01-31T05:49:36.792Z,13.07
2023-01-31T05:52:04.348Z,16.02
2023-01-31T05:54:31.583Z,18.02
2023-01-31T05:56:58.890Z,8.93
2023-01-31T05:59:31.232Z,21.45
2023-01-31T06:01:58.625Z,21.83
2023-01-31T06:04:25.936Z,12.63
2023-01-31T06:06:53.248Z,18.60
2023-01-31T06:09:20.587Z,13.18
2023-01-31T06:11:47.826Z,19.85
2023-01-31T06:14:15.165Z,20.40
2023-01-31T06:16:42.513Z,20.25
2023-01-31T06:19:09.794Z,20.20
2023-01-31T06:21:37.169Z,27.90
2023-01-31T06:24:04.706Z,23.58
2023-01-31T06:26:32.227Z,19.92
2023-01-31T06:28:59.611Z,23.02
2023-01-31T06:31:26.963Z,18.55
2023-01-31T06:33:54.306Z,14.95
2023-01-31T06:36:21.740Z,33.30
2023-01-31T06:38:52.934Z,20.45
2023-01-31T06:41:20.952Z,14.32
2023-01-31T06:43:48.754Z,15.05
2023-01-31T06:46:16.083Z,17.75
2023-01-31T06:48:46.171Z,22.02
2023-01-31T06:51:13.430Z,15.80
2023-01-31T06:53:40.815Z,22.65
2023-01-31T06:56:10.823Z,19.00
2023-01-31T06:58:39.638Z,15.07
2023-01-31T07:01:13.751Z,22.75
2023-01-31T07:03:41.223Z,20.77
2023-01-31T07:06:24.164Z,17.83
2023-01-31T07:08:54.311Z,19.95
2023-01-31T07:11:24.449Z,30.35
2023-01-31T07:13:54.352Z,16.83
2023-01-31T07:16:23.941Z,25.55
2023-01-31T07:18:53.083Z,24.98
2023-01-31T07:21:20.341Z,19.88
2023-01-31T07:23:47.748Z,19.42
2023-01-31T07:26:24.626Z,15.27
2023-01-31T07:28:53.286Z,17.83
2023-01-31T07:31:21.185Z,19.67
2023-01-31T07:33:48.894Z,26.92
2023-01-31T07:36:19.946Z,24.10
2023-01-31T07:38:47.624Z,22.58
2023-01-31T07:41:42.732Z,24.67
2023-01-31T07:44:14.717Z,32.63
2023-01-31T07:46:56.092Z,26.35
2023-01-31T07:49:26.535Z,22.60
2023-01-31T07:52:28.937Z,20.90
2023-01-31T07:55:26.093Z,17.83
2023-01-31T07:58:03.142Z,22.83
2023-01-31T08:01:17.881Z,22.02
2023-01-31T08:12:40.611Z,30.60
2023-01-31T08:15:14.770Z,17.00
2023-01-31T08:25:07.814Z,27.98
2023-01-31T08:27:58.315Z,28.63
2023-01-31T08:31:07.832Z,22.15
2023-01-31T08:33:42.289Z,19.25
2023-01-31T08:49:00.289Z,28.35
2023-01-31T08:51:41.452Z,23.13
2023-01-31T08:58:02.138Z,23.77
2023-01-31T09:07:50.957Z,33.50
2023-01-31T09:13:37.456Z,25.23
2023-01-31T09:16:15.928Z,30.55
2023-01-31T09:19:03.189Z,30.75
2023-01-31T09:21:33.570Z,26.48
2023-01-31T09:24:04.093Z,37.85
2023-01-31T09:28:18.883Z,29.67
2023-01-31T09:29:48.795Z,27.48
2023-01-31T09:32:24.790Z,29.80
2023-01-31T09:35:17.059Z,28.45
2023-01-31T09:37:45.082Z,27.52
2023-01-31T09:40:43.959Z,22.70
2023-01-31T09:43:29.946Z,29.85
2023-01-31T09:46:17.258Z,30.05
2023-01-31T09:50:40.243Z,29.90
2023-01-31T09:52:00.173Z,16.13
2023-01-31T09:54:46.703Z,24.67
2023-01-31T09:58:00.437Z,26.35
2023-01-31T10:00:39.419Z,23.85
2023-01-31T10:03:21.437Z,23.05
2023-01-31T10:06:06.404Z,20.92
2023-01-31T10:12:46.094Z,22.00
2023-01-31T10:15:51.021Z,34.92
2023-01-31T10:28:38.512Z,22.08
2023-01-31T10:30:51.441Z,20.13
2023-01-31T10:31:20.416Z,22.35
2023-01-31T10:33:56.422Z,20.48
2023-01-31T10:36:31.025Z,26.75
2023-01-31T10:40:23.258Z,21.95
2023-01-31T10:42:51.432Z,22.83
2023-01-31T10:45:37.625Z,27.50
2023-01-31T10:51:40.752Z,24.05
2023-01-31T10:54:27.578Z,19.85
2023-01-31T10:57:08.290Z,17.77
2023-01-31T11:03:15.224Z,22.95
2023-01-31T11:24:08.523Z,24.30
2023-01-31T11:26:43.198Z,18.63
2023-01-31T11:29:22.953Z,21.25
2023-01-31T11:32:12.586Z,26.73
2023-01-31T11:38:49.917Z,23.13
2023-01-31T11:41:17.091Z,19.73
2023-01-31T11:44:07.397Z,29.75
2023-01-31T12:00:29.295Z,20.15
2023-01-31T12:04:35.594Z,24.95
2023-01-31T12:10:31.413Z,27.25
2023-01-31T12:47:43.201Z,39.67
2023-01-31T12:50:53.668Z,33.75
2023-01-31T12:59:50.435Z,36.42
2023-01-31T13:02:57.913Z,34.28
2023-01-31T13:05:32.697Z,35.65
2023-01-31T13:08:21.318Z,34.53
2023-01-31T13:10:54.593Z,33.88
2023-01-31T13:13:58.133Z,35.95
2023-01-31T13:20:03.728Z,38.97
2023-01-31T13:22:35.124Z,36.45
2023-01-31T13:25:23.853Z,34.65
2023-01-31T13:28:06.310Z,40.20
2023-01-31T13:30:38.322Z,39.35
2023-01-31T13:34:03.615Z,39.60
2023-01-31T13:36:55.879Z,34.78
2023-01-31T13:39:46.123Z,38.10
2023-01-31T13:42:15.426Z,34.80
2023-01-31T13:44:43.751Z,35.22
2023-01-31T13:47:39.862Z,34.97
2023-01-31T13:50:39.386Z,31.10
2023-01-31T13:53:12.521Z,30.92
2023-01-31T13:55:56.840Z,27.13
2023-01-31T13:58:34.329Z,25.38
2023-01-31T14:01:24.362Z,24.95
2023-01-31T14:04:17.728Z,26.30
2023-01-31T14:07:06.962Z,21.20
2023-01-31T14:09:59.922Z,21.30
2023-01-31T14:12:36.430Z,21.38
2023-01-31T14:15:49.326Z,21.17
2023-01-31T14:18:44.703Z,18.80
2023-01-31T14:21:38.863Z,17.30
2023-01-31T14:24:19.138Z,17.88
2023-01-31T14:26:55.778Z,20.23
2023-01-31T14:29:44.404Z,21.50
2023-01-31T14:32:31.909Z,21.52
2023-01-31T14:35:10.287Z,23.52
2023-01-31T14:37:50.049Z,19.67
2023-01-31T14:40:55.135Z,21.48
2023-01-31T14:46:55.125Z,21.73
2023-01-31T14:49:47.670Z,16.35
2023-01-31T14:52:36.547Z,21.45
2023-01-31T14:55:29.511Z,27.17
2023-01-31T14:58:01.312Z,28.40
2023-01-31T15:01:02.340Z,27.67
2023-01-31T15:03:50.492Z,18.52
2023-01-31T15:06:36.003Z,19.20
2023-01-31T15:09:30.979Z,18.17
2023-01-31T15:11:58.463Z,22.23
2023-01-31T15:14:34.577Z,19.73
2023-01-31T15:17:37.461Z,21.25
2023-01-31T15:20:19.784Z,18.90
2023-01-31T15:22:47.425Z,19.40
2023-01-31T15:25:34.152Z,21.58
2023-01-31T15:28:08.910Z,16.20
2023-01-31T15:30:43.647Z,18.48
2023-01-31T15:33:18.605Z,17.58
2023-01-31T15:36:09.411Z,22.02
2023-01-31T15:38:56.864Z,21.35
2023-01-31T15:41:49.179Z,16.27
2023-01-31T15:44:20.481Z,21.10
2023-01-31T15:47:00.483Z,18.40
2023-01-31T15:49:45.862Z,20.10
2023-01-31T15:52:26.748Z,17.30
2023-01-31T15:54:59.091Z,17.70
2023-01-31T15:57:39.381Z,16.10
2023-01-31T16:00:09.399Z,17.80
2023-01-31T16:02:38.085Z,18.27
2023-01-31T16:05:13.886Z,15.18
2023-01-31T16:07:49.835Z,18.70
2023-01-31T16:13:06.861Z,15.45
2023-01-31T16:16:02.313Z,19.35
2023-01-31T16:18:31.700Z,13.13
2023-01-31T16:21:02.216Z,17.85
2023-01-31T16:23:39.241Z,19.15
2023-01-31T16:26:24.364Z,16.25
2023-01-31T16:28:57.954Z,14.35
2023-01-31T16:31:56.137Z,14.15
2023-01-31T16:34:36.551Z,16.98
2023-01-31T16:37:12.781Z,14.77
2023-01-31T16:39:51.255Z,15.10
2023-01-31T16:42:24.044Z,14.27
2023-01-31T16:45:09.091Z,12.23
2023-01-31T16:47:52.841Z,12.77
2023-01-31T16:50:26.845Z,11.88
2023-01-31T16:53:32.195Z,10.88
2023-01-31T16:56:17.535Z,12.82
2023-01-31T16:59:13.858Z,18.60
2023-01-31T17:01:41.259Z,15.90
2023-01-31T17:04:19.988Z,14.00
2023-01-31T17:07:03.783Z,19.90
2023-01-31T17:09:31.184Z,19.90
2023-01-31T17:12:00.774Z,15.23
2023-01-31T17:14:31.357Z,22.27
2023-01-31T17:17:12.726Z,13.73
2023-01-31T17:19:46.969Z,10.77
2023-01-31T17:22:23.783Z,14.43
2023-01-31T17:25:34.425Z,12.82
2023-01-31T17:29:02.045Z,16.27
2023-01-31T17:31:38.265Z,12.50
2023-01-31T17:34:27.039Z,19.00
2023-01-31T17:37:31.644Z,16.25
2023-01-31T17:40:35.722Z,14.48
2023-01-31T17:45:55.661Z,9.70
2023-01-31T17:48:26.560Z,9.23
2023-01-31T17:50:54.900Z,20.23
2023-01-31T17:56:11.629Z,13.75
2023-01-31T17:58:44.220Z,16.65
2023-01-31T18:01:18.275Z,12.05
2023-01-31T18:03:46.129Z,12.93
2023-01-31T18:06:13.740Z,19.10
2023-01-31T18:08:40.989Z,11.82
2023-01-31T18:11:11.019Z,11.55
2023-01-31T18:13:42.726Z,11.90
2023-01-31T18:16:15.235Z,14.88
2023-01-31T18:18:46.213Z,11.00
2023-01-31T18:21:19.709Z,13.57
2023-01-31T18:23:51.931Z,10.80
2023-01-31T18:26:19.734Z,14.48
2023-01-31T18:28:47.268Z,13.18
2023-01-31T18:31:27.147Z,13.95
2023-01-31T18:34:05.850Z,15.98
2023-01-31T18:36:33.087Z,20.30
2023-01-31T18:39:00.735Z,13.10
2023-01-31T18:41:34.592Z,18.80
2023-01-31T18:44:02.830Z,15.15
2023-01-31T18:46:32.871Z,13.93
2023-01-31T18:49:05.774Z,14.35
2023-01-31T18:51:43.167Z,11.57
2023-01-31T18:54:12.045Z,13.73
2023-01-31T18:56:39.491Z,12.68
2023-01-31T18:59:08.778Z,10.55
2023-01-31T19:01:54.768Z,14.88
2023-01-31T19:04:22.269Z,13.38
2023-01-31T19:06:51.718Z,14.57
2023-01-31T19:09:24.196Z,10.32
2023-01-31T19:12:30.638Z,12.25
2023-01-31T19:15:08.923Z,15.05
2023-01-31T19:21:04.191Z,14.45
2023-01-31T19:24:01.172Z,15.00
2023-01-31T19:26:31.379Z,16.70
2023-01-31T19:29:32.542Z,22.75
2023-01-31T19:32:03.008Z,14.00
2023-01-31T21:46:32.312Z,11.93
2023-01-31T21:49:01.252Z,16.35
2023-01-31T21:51:28.891Z,13.35
2023-01-31T21:53:56.275Z,16.95
2023-01-31T21:56:29.943Z,16.15
2023-01-31T21:58:57.658Z,22.40
2023-01-31T22:01:33.826Z,24.85
2023-01-31T22:04:01.530Z,17.90
2023-01-31T22:06:39.410Z,13.05
2023-01-31T22:09:08.244Z,20.88
2023-01-31T22:11:36.227Z,11.30
2023-01-31T22:14:05.428Z,17.77
2023-01-31T22:16:36.337Z,13.30
2023-01-31T22:19:06.674Z,19.02
2023-01-31T22:21:38.225Z,18.25
2023-01-31T22:24:06.695Z,20.38
2023-01-31T22:26:35.649Z,9.18
2023-01-31T22:29:06.154Z,20.35
2023-01-31T22:31:34.258Z,11.63
2023-01-31T22:34:06.181Z,18.38
2023-01-31T22:36:39.767Z,10.02
2023-01-31T22:39:19.668Z,17.20
2023-01-31T22:41:53.030Z,18.95
2023-01-31T22:44:26.254Z,13.57
2023-01-31T22:49:21.386Z,18.42
2023-01-31T22:51:48.765Z,16.55
2023-01-31T22:57:09.656Z,15.88
2023-01-31T22:59:40.166Z,19.05
2023-01-31T23:02:07.731Z,9.10
2023-01-31T23:04:35.497Z,15.18
2023-01-31T23:07:03.005Z,20.15
2023-01-31T23:09:35.013Z,18.75
2023-01-31T23:15:00.789Z,22.42
2023-01-31T23:17:42.350Z,20.52
2023-01-31T23:20:11.430Z,17.17
2023-01-31T23:22:39.094Z,19.25
2023-01-31T23:25:16.808Z,17.48
2023-01-31T23:27:44.102Z,16.50
2023-01-31T23:30:12.563Z,14.68
2023-01-31T23:32:44.641Z,18.73
2023-01-31T23:35:21.232Z,15.77
2023-01-31T23:37:56.061Z,16.60
2023-01-31T23:40:25.806Z,11.90
2023-01-31T23:42:59.865Z,23.52
2023-01-31T23:45:31.730Z,16.95
2023-01-31T23:47:59.063Z,19.58
2023-01-31T23:50:32.590Z,19.48
2023-01-31T23:53:00.046Z,15.73
2023-01-31T23:55:27.377Z,12.10
2023-01-31T23:57:54.884Z,21.02
